sensor_id;sensor_type;location;lat;lon;timestamp;pressure;altitude;pressure_sealevel;temperature;humidity
9009;BME280;62813;51.424;6.762;2023-03-03T00:01:49;102067.63;;;2.12;82.86
9009;BME280;62813;51.424;6.762;2023-03-03T00:04:15;102064.25;;;2.14;82.78
9009;BME280;62813;51.424;6.762;2023-03-03T00:06:44;102053.06;;;2.11;82.52
9009;BME280;62813;51.424;6.762;2023-03-03T00:09:11;102065.09;;;2.13;82.59
9009;BME280;62813;51.424;6.762;2023-03-03T00:11:40;102060.06;;;2.19;82.54
9009;BME280;62813;51.424;6.762;2023-03-03T00:14:30;102068.69;;;2.26;82.37
9009;BME280;62813;51.424;6.762;2023-03-03T00:17:00;102060.19;;;2.30;82.46
9009;BME280;62813;51.424;6.762;2023-03-03T00:19:37;102071.38;;;2.35;81.95
9009;BME280;62813;51.424;6.762;2023-03-03T00:22:14;102075.72;;;2.41;81.64
9009;BME280;62813;51.424;6.762;2023-03-03T00:24:42;102075.72;;;2.41;81.88
9009;BME280;62813;51.424;6.762;2023-03-03T00:27:22;102078.19;;;2.33;82.02
9009;BME280;62813;51.424;6.762;2023-03-03T00:29:55;102086.63;;;2.27;82.63
9009;BME280;62813;51.424;6.762;2023-03-03T00:32:27;102080.56;;;2.22;82.72
9009;BME280;62813;51.424;6.762;2023-03-03T00:35:01;102088.34;;;2.27;82.63
9009;BME280;62813;51.424;6.762;2023-03-03T00:37:45;102087.41;;;2.23;82.52
9009;BME280;62813;51.424;6.762;2023-03-03T00:40:34;102084.84;;;2.22;82.78
9009;BME280;62813;51.424;6.762;2023-03-03T00:43:16;102082.38;;;2.28;82.82
9009;BME280;62813;51.424;6.762;2023-03-03T00:45:51;102101.25;;;2.34;82.45
9009;BME280;62813;51.424;6.762;2023-03-03T00:48:26;102094.31;;;2.27;82.66
9009;BME280;62813;51.424;6.762;2023-03-03T00:50:58;102095.00;;;2.17;82.55
9009;BME280;62813;51.424;6.762;2023-03-03T00:53:27;102097.53;;;2.14;82.80
9009;BME280;62813;51.424;6.762;2023-03-03T00:55:56;102102.63;;;2.11;82.97
9009;BME280;62813;51.424;6.762;2023-03-03T00:58:24;102089.00;;;2.15;82.97
9009;BME280;62813;51.424;6.762;2023-03-03T01:00:54;102101.94;;;2.23;82.52
9009;BME280;62813;51.424;6.762;2023-03-03T01:03:23;102100.34;;;2.31;81.85
9009;BME280;62813;51.424;6.762;2023-03-03T01:05:52;102100.31;;;2.29;82.46
9009;BME280;62813;51.424;6.762;2023-03-03T01:08:19;102097.78;;;2.31;82.33
9009;BME280;62813;51.424;6.762;2023-03-03T01:10:49;102099.53;;;2.33;82.11
9009;BME280;62813;51.424;6.762;2023-03-03T01:13:18;102102.13;;;2.35;82.31
9009;BME280;62813;51.424;6.762;2023-03-03T01:15:46;102104.50;;;2.24;82.58
9009;BME280;62813;51.424;6.762;2023-03-03T01:18:13;102101.94;;;2.23;82.29
9009;BME280;62813;51.424;6.762;2023-03-03T01:20:40;102098.50;;;2.22;82.79
9009;BME280;62813;51.424;6.762;2023-03-03T01:23:07;102097.63;;;2.20;82.84
9009;BME280;62813;51.424;6.762;2023-03-03T01:25:34;102100.22;;;2.23;82.60
9009;BME280;62813;51.424;6.762;2023-03-03T01:28:01;102092.44;;;2.17;82.33
9009;BME280;62813;51.424;6.762;2023-03-03T01:30:28;102097.22;;;1.96;83.06
9009;BME280;62813;51.424;6.762;2023-03-03T01:32:54;102109.19;;;1.97;83.63
9009;BME280;62813;51.424;6.762;2023-03-03T01:35:21;102101.47;;;1.92;83.86
9009;BME280;62813;51.424;6.762;2023-03-03T01:37:48;102106.56;;;1.91;83.50
9009;BME280;62813;51.424;6.762;2023-03-03T01:40:19;102102.22;;;1.88;83.71
9009;BME280;62813;51.424;6.762;2023-03-03T01:42:46;102104.03;;;1.94;83.78
9009;BME280;62813;51.424;6.762;2023-03-03T01:47:44;102095.59;;;1.98;82.83
9009;BME280;62813;51.424;6.762;2023-03-03T01:50:24;102102.31;;;1.93;83.28
9009;BME280;62813;51.424;6.762;2023-03-03T01:52:53;102093.78;;;1.94;83.20
9009;BME280;62813;51.424;6.762;2023-03-03T01:55:22;102098.03;;;1.90;83.49
9009;BME280;62813;51.424;6.762;2023-03-03T01:58:15;102100.53;;;1.89;83.72
9009;BME280;62813;51.424;6.762;2023-03-03T02:00:46;102104.88;;;1.93;83.59
9009;BME280;62813;51.424;6.762;2023-03-03T02:03:18;102097.19;;;1.93;83.33
9009;BME280;62813;51.424;6.762;2023-03-03T02:05:45;102096.22;;;1.85;83.45
9009;BME280;62813;51.424;6.762;2023-03-03T02:08:15;102092.75;;;1.83;83.67
9009;BME280;62813;51.424;6.762;2023-03-03T02:10:46;102085.91;;;1.82;83.89
9009;BME280;62813;51.424;6.762;2023-03-03T02:13:13;102087.63;;;1.83;83.46
9009;BME280;62813;51.424;6.762;2023-03-03T02:15:39;102079.16;;;1.85;84.13
9009;BME280;62813;51.424;6.762;2023-03-03T02:18:14;102083.41;;;1.85;83.96
9009;BME280;62813;51.424;6.762;2023-03-03T02:20:54;102085.03;;;1.79;83.73
9009;BME280;62813;51.424;6.762;2023-03-03T02:23:31;102082.59;;;1.87;83.70
9009;BME280;62813;51.424;6.762;2023-03-03T02:26:38;102081.94;;;1.99;83.15
9009;BME280;62813;51.424;6.762;2023-03-03T02:28:57;102083.44;;;1.86;83.53
9009;BME280;62813;51.424;6.762;2023-03-03T02:31:26;102086.00;;;1.88;83.56
9009;BME280;62813;51.424;6.762;2023-03-03T02:33:54;102084.41;;;1.93;83.55
9009;BME280;62813;51.424;6.762;2023-03-03T02:36:29;102093.78;;;1.94;83.01
9009;BME280;62813;51.424;6.762;2023-03-03T02:42:04;102098.88;;;1.91;83.57
9009;BME280;62813;51.424;6.762;2023-03-03T02:44:32;102106.28;;;1.75;83.75
9009;BME280;62813;51.424;6.762;2023-03-03T02:46:59;102110.53;;;1.73;84.18
9009;BME280;62813;51.424;6.762;2023-03-03T02:49:28;102111.19;;;1.62;83.93
9009;BME280;62813;51.424;6.762;2023-03-03T02:51:56;102106.09;;;1.63;84.08
9009;BME280;62813;51.424;6.762;2023-03-03T02:54:25;102107.00;;;1.67;83.94
9009;BME280;62813;51.424;6.762;2023-03-03T02:56:52;102107.06;;;1.70;84.01
9009;BME280;62813;51.424;6.762;2023-03-03T02:59:18;102103.59;;;1.68;83.88
9009;BME280;62813;51.424;6.762;2023-03-03T03:01:46;102106.25;;;1.72;83.85
9009;BME280;62813;51.424;6.762;2023-03-03T03:04:15;102109.56;;;1.68;83.54
9009;BME280;62813;51.424;6.762;2023-03-03T03:06:43;102118.09;;;1.67;84.05
9009;BME280;62813;51.424;6.762;2023-03-03T03:09:11;102113.03;;;1.69;84.12
9009;BME280;62813;51.424;6.762;2023-03-03T03:11:38;102108.69;;;1.66;83.98
9009;BME280;62813;51.424;6.762;2023-03-03T03:14:10;102117.31;;;1.70;83.59
9009;BME280;62813;51.424;6.762;2023-03-03T03:16:38;102109.56;;;1.67;83.75
9009;BME280;62813;51.424;6.762;2023-03-03T03:19:05;102111.19;;;1.62;83.99
9009;BME280;62813;51.424;6.762;2023-03-03T03:21:32;102112.00;;;1.61;83.93
9009;BME280;62813;51.424;6.762;2023-03-03T03:24:00;102133.16;;;1.50;84.39
9009;BME280;62813;51.424;6.762;2023-03-03T03:26:26;102125.25;;;1.38;84.85
9009;BME280;62813;51.424;6.762;2023-03-03T03:28:53;102130.19;;;1.29;85.21
9009;BME280;62813;51.424;6.762;2023-03-03T03:31:20;102131.16;;;1.34;85.38
9009;BME280;62813;51.424;6.762;2023-03-03T03:33:47;102126.09;;;1.39;85.31
9009;BME280;62813;51.424;6.762;2023-03-03T03:36:14;102135.50;;;1.40;85.07
9009;BME280;62813;51.424;6.762;2023-03-03T03:38:43;102130.50;;;1.46;84.90
9009;BME280;62813;51.424;6.762;2023-03-03T03:41:11;102141.53;;;1.42;85.05
9009;BME280;62813;51.424;6.762;2023-03-03T03:43:37;102132.19;;;1.44;84.56
9009;BME280;62813;51.424;6.762;2023-03-03T03:46:04;102129.63;;;1.44;84.67
9009;BME280;62813;51.424;6.762;2023-03-03T03:48:31;102126.13;;;1.40;84.73
9009;BME280;62813;51.424;6.762;2023-03-03T03:50:58;102126.22;;;1.45;84.63
9009;BME280;62813;51.424;6.762;2023-03-03T03:53:25;102124.63;;;1.50;84.17
9009;BME280;62813;51.424;6.762;2023-03-03T03:55:51;102130.69;;;1.55;84.00
9009;BME280;62813;51.424;6.762;2023-03-03T03:58:18;102125.63;;;1.58;83.68
9009;BME280;62813;51.424;6.762;2023-03-03T04:00:46;102128.28;;;1.64;83.37
9009;BME280;62813;51.424;6.762;2023-03-03T04:03:13;102131.72;;;1.66;83.23
9009;BME280;62813;51.424;6.762;2023-03-03T04:05:40;102142.91;;;1.71;83.24
9009;BME280;62813;51.424;6.762;2023-03-03T04:08:07;102136.09;;;1.70;83.47
9009;BME280;62813;51.424;6.762;2023-03-03T04:10:34;102138.69;;;1.75;82.97
9009;BME280;62813;51.424;6.762;2023-03-03T04:13:01;102145.59;;;1.77;83.22
9009;BME280;62813;51.424;6.762;2023-03-03T04:15:27;102143.16;;;1.84;82.74
9009;BME280;62813;51.424;6.762;2023-03-03T04:17:54;102146.50;;;1.83;82.57
9009;BME280;62813;51.424;6.762;2023-03-03T04:20:23;102144.06;;;1.89;82.56
9009;BME280;62813;51.424;6.762;2023-03-03T04:22:50;102140.63;;;1.87;82.58
9009;BME280;62813;51.424;6.762;2023-03-03T04:25:17;102132.03;;;1.83;82.58
9009;BME280;62813;51.424;6.762;2023-03-03T04:27:44;102137.94;;;1.80;82.75
9009;BME280;62813;51.424;6.762;2023-03-03T04:30:12;102137.91;;;1.77;83.18
9009;BME280;62813;51.424;6.762;2023-03-03T04:32:39;102138.78;;;1.79;83.16
9009;BME280;62813;51.424;6.762;2023-03-03T04:35:07;102131.69;;;1.63;83.31
9009;BME280;62813;51.424;6.762;2023-03-03T04:37:34;102130.69;;;1.55;83.66
9009;BME280;62813;51.424;6.762;2023-03-03T04:40:03;102135.00;;;1.58;83.70
9009;BME280;62813;51.424;6.762;2023-03-03T04:42:30;102151.94;;;1.52;83.45
9009;BME280;62813;51.424;6.762;2023-03-03T04:44:56;102140.00;;;1.51;83.68
9009;BME280;62813;51.424;6.762;2023-03-03T04:47:23;102135.75;;;1.52;83.53
9009;BME280;62813;51.424;6.762;2023-03-03T04:49:50;102139.09;;;1.48;83.86
9009;BME280;62813;51.424;6.762;2023-03-03T04:52:17;102144.16;;;1.46;84.04
9009;BME280;62813;51.424;6.762;2023-03-03T04:54:44;102143.31;;;1.47;83.73
9009;BME280;62813;51.424;6.762;2023-03-03T04:57:10;102140.03;;;1.55;83.79
9009;BME280;62813;51.424;6.762;2023-03-03T04:59:37;102140.13;;;1.58;83.19
9009;BME280;62813;51.424;6.762;2023-03-03T05:02:03;102157.19;;;1.59;83.41
9009;BME280;62813;51.424;6.762;2023-03-03T05:04:31;102153.03;;;1.64;83.65
9009;BME280;62813;51.424;6.762;2023-03-03T05:06:57;102154.75;;;1.66;83.53
9009;BME280;62813;51.424;6.762;2023-03-03T05:09:24;102153.88;;;1.63;83.19
9009;BME280;62813;51.424;6.762;2023-03-03T05:11:51;102145.28;;;1.61;83.50
9009;BME280;62813;51.424;6.762;2023-03-03T05:14:18;102147.78;;;1.56;83.39
9009;BME280;62813;51.424;6.762;2023-03-03T05:16:45;102150.38;;;1.59;83.75
9009;BME280;62813;51.424;6.762;2023-03-03T05:19:11;102152.94;;;1.61;83.45
9009;BME280;62813;51.424;6.762;2023-03-03T05:21:38;102151.22;;;1.58;83.68
9009;BME280;62813;51.424;6.762;2023-03-03T05:24:11;102149.38;;;1.51;83.48
9009;BME280;62813;51.424;6.762;2023-03-03T05:26:39;102156.16;;;1.49;83.93
9009;BME280;62813;51.424;6.762;2023-03-03T05:29:06;102156.22;;;1.52;83.75
9009;BME280;62813;51.424;6.762;2023-03-03T05:31:33;102153.88;;;1.63;84.71
9009;BME280;62813;51.424;6.762;2023-03-03T05:34:00;102154.91;;;1.75;84.97
9009;BME280;62813;51.424;6.762;2023-03-03T05:36:27;102154.25;;;1.86;84.54
9009;BME280;62813;51.424;6.762;2023-03-03T05:38:53;102152.66;;;1.92;84.42
9009;BME280;62813;51.424;6.762;2023-03-03T05:41:20;102154.47;;;1.98;84.02
9009;BME280;62813;51.424;6.762;2023-03-03T05:43:47;102161.34;;;2.02;83.37
9009;BME280;62813;51.424;6.762;2023-03-03T05:46:14;102155.41;;;2.03;83.28
9009;BME280;62813;51.424;6.762;2023-03-03T05:48:40;102164.03;;;2.08;83.41
9009;BME280;62813;51.424;6.762;2023-03-03T05:51:07;102154.72;;;2.13;82.94
9009;BME280;62813;51.424;6.762;2023-03-03T05:53:34;102165.84;;;2.15;81.94
9009;BME280;62813;51.424;6.762;2023-03-03T05:56:00;102165.72;;;2.07;82.17
9009;BME280;62813;51.424;6.762;2023-03-03T05:58:27;102165.75;;;2.09;81.51
9009;BME280;62813;51.424;6.762;2023-03-03T06:00:54;102170.97;;;2.15;81.53
9009;BME280;62813;51.424;6.762;2023-03-03T06:03:20;102167.69;;;2.22;81.52
9009;BME280;62813;51.424;6.762;2023-03-03T06:05:47;102170.97;;;2.15;81.37
9009;BME280;62813;51.424;6.762;2023-03-03T06:08:16;102164.16;;;2.17;81.51
9009;BME280;62813;51.424;6.762;2023-03-03T06:10:43;102171.06;;;2.20;81.61
9009;BME280;62813;51.424;6.762;2023-03-03T06:13:09;102163.31;;;2.17;81.28
9009;BME280;62813;51.424;6.762;2023-03-03T06:15:36;102168.50;;;2.20;80.70
9009;BME280;62813;51.424;6.762;2023-03-03T06:18:03;102169.50;;;2.29;81.09
9009;BME280;62813;51.424;6.762;2023-03-03T06:20:30;102178.63;;;2.14;80.51
9009;BME280;62813;51.424;6.762;2023-03-03T06:22:57;102184.75;;;2.23;81.25
9009;BME280;62813;51.424;6.762;2023-03-03T06:25:23;102186.47;;;2.24;80.43
9009;BME280;62813;51.424;6.762;2023-03-03T06:27:50;102192.41;;;2.19;79.66
9009;BME280;62813;51.424;6.762;2023-03-03T06:30:17;102198.38;;;2.19;79.98
9009;BME280;62813;51.424;6.762;2023-03-03T06:32:44;102194.91;;;2.17;79.62
9009;BME280;62813;51.424;6.762;2023-03-03T06:35:11;102195.72;;;2.15;79.53
9009;BME280;62813;51.424;6.762;2023-03-03T06:37:38;102201.63;;;2.11;79.69
9009;BME280;62813;51.424;6.762;2023-03-03T06:40:05;102205.88;;;2.08;79.48
9009;BME280;62813;51.424;6.762;2023-03-03T06:42:32;102207.53;;;2.06;79.86
9009;BME280;62813;51.424;6.762;2023-03-03T06:44:59;102210.00;;;2.02;79.89
9009;BME280;62813;51.424;6.762;2023-03-03T06:47:25;102215.94;;;1.98;79.58
9009;BME280;62813;51.424;6.762;2023-03-03T06:49:52;102218.53;;;1.99;79.47
9009;BME280;62813;51.424;6.762;2023-03-03T06:52:24;102213.38;;;1.98;79.72
9009;BME280;62813;51.424;6.762;2023-03-03T06:54:59;102228.75;;;1.98;79.91
9009;BME280;62813;51.424;6.762;2023-03-03T06:57:32;102227.06;;;2.00;80.17
9009;BME280;62813;51.424;6.762;2023-03-03T07:00:17;102237.31;;;2.00;79.58
9009;BME280;62813;51.424;6.762;2023-03-03T07:02:47;102227.09;;;2.03;79.43
9009;BME280;62813;51.424;6.762;2023-03-03T07:05:17;102227.06;;;2.00;79.49
9009;BME280;62813;51.424;6.762;2023-03-03T07:07:44;102233.63;;;1.86;80.18
9009;BME280;62813;51.424;6.762;2023-03-03T07:10:22;102226.84;;;1.88;79.80
9009;BME280;62813;51.424;6.762;2023-03-03T07:12:49;102225.94;;;1.86;80.04
9009;BME280;62813;51.424;6.762;2023-03-03T07:15:20;102231.94;;;1.88;79.79
9009;BME280;62813;51.424;6.762;2023-03-03T07:17:49;102230.25;;;1.88;79.94
9009;BME280;62813;51.424;6.762;2023-03-03T07:22:51;102235.47;;;1.93;80.13
9009;BME280;62813;51.424;6.762;2023-03-03T07:25:31;102241.31;;;1.86;79.85
9009;BME280;62813;51.424;6.762;2023-03-03T07:28:10;102243.78;;;1.83;80.31
9009;BME280;62813;51.424;6.762;2023-03-03T07:30:41;102240.47;;;1.87;79.78
9009;BME280;62813;51.424;6.762;2023-03-03T07:33:19;102237.94;;;1.88;79.73
9009;BME280;62813;51.424;6.762;2023-03-03T07:35:49;102246.34;;;1.83;79.68
9009;BME280;62813;51.424;6.762;2023-03-03T07:40:48;102252.31;;;1.82;79.95
9009;BME280;62813;51.424;6.762;2023-03-03T07:45:45;102264.34;;;1.84;79.95
9009;BME280;62813;51.424;6.762;2023-03-03T07:48:36;102265.22;;;1.86;79.81
9009;BME280;62813;51.424;6.762;2023-03-03T07:51:11;102266.13;;;1.90;79.82
9009;BME280;62813;51.424;6.762;2023-03-03T07:53:39;102264.44;;;1.90;79.75
9009;BME280;62813;51.424;6.762;2023-03-03T07:58:51;102274.88;;;2.01;79.21
9009;BME280;62813;51.424;6.762;2023-03-03T08:03:57;102277.41;;;1.98;79.48
9009;BME280;62813;51.424;6.762;2023-03-03T08:09:29;102288.34;;;1.91;79.49
9009;BME280;62813;51.424;6.762;2023-03-03T08:12:09;102284.25;;;2.00;79.51
9009;BME280;62813;51.424;6.762;2023-03-03T08:14:37;102292.06;;;2.06;79.58
9009;BME280;62813;51.424;6.762;2023-03-03T08:17:34;102292.09;;;2.08;79.14
9009;BME280;62813;51.424;6.762;2023-03-03T08:20:24;102293.19;;;2.21;78.95
9009;BME280;62813;51.424;6.762;2023-03-03T08:22:54;102294.03;;;2.21;78.77
9009;BME280;62813;51.424;6.762;2023-03-03T08:25:21;102287.25;;;2.25;78.68
9009;BME280;62813;51.424;6.762;2023-03-03T08:27:47;102292.47;;;2.29;78.39
9009;BME280;62813;51.424;6.762;2023-03-03T08:30:14;102294.16;;;2.27;78.79
9009;BME280;62813;51.424;6.762;2023-03-03T08:32:40;102296.00;;;2.34;78.38
9009;BME280;62813;51.424;6.762;2023-03-03T08:35:08;102302.88;;;2.39;78.41
9009;BME280;62813;51.424;6.762;2023-03-03T08:37:34;102303.72;;;2.38;78.46
9009;BME280;62813;51.424;6.762;2023-03-03T08:40:01;102308.72;;;2.31;78.49
9009;BME280;62813;51.424;6.762;2023-03-03T08:42:27;102309.66;;;2.33;78.78
9009;BME280;62813;51.424;6.762;2023-03-03T08:44:55;102310.56;;;2.39;78.72
9009;BME280;62813;51.424;6.762;2023-03-03T08:47:22;102307.13;;;2.38;78.52
9009;BME280;62813;51.424;6.762;2023-03-03T08:49:48;102316.25;;;2.21;78.82
9009;BME280;62813;51.424;6.762;2023-03-03T08:52:15;102313.66;;;2.19;79.07
9009;BME280;62813;51.424;6.762;2023-03-03T08:54:41;102312.00;;;2.23;78.74
9009;BME280;62813;51.424;6.762;2023-03-03T08:57:08;102310.13;;;2.14;79.32
9009;BME280;62813;51.424;6.762;2023-03-03T08:59:34;102322.69;;;2.02;79.66
9009;BME280;62813;51.424;6.762;2023-03-03T09:02:05;102321.88;;;2.03;79.85
9009;BME280;62813;51.424;6.762;2023-03-03T09:04:32;102325.94;;;1.93;80.19
9009;BME280;62813;51.424;6.762;2023-03-03T09:07:00;102315.84;;;2.01;80.15
9009;BME280;62813;51.424;6.762;2023-03-03T09:09:26;102321.22;;;2.13;80.27
9009;BME280;62813;51.424;6.762;2023-03-03T09:11:58;102323.09;;;2.22;79.78
9009;BME280;62813;51.424;6.762;2023-03-03T09:14:28;102330.06;;;2.30;79.41
9009;BME280;62813;51.424;6.762;2023-03-03T09:16:55;102337.88;;;2.38;79.22
9009;BME280;62813;51.424;6.762;2023-03-03T09:19:26;102342.19;;;2.39;79.09
9009;BME280;62813;51.424;6.762;2023-03-03T09:21:55;102346.41;;;2.37;79.08
9009;BME280;62813;51.424;6.762;2023-03-03T09:24:35;102336.16;;;2.35;79.16
9009;BME280;62813;51.424;6.762;2023-03-03T09:27:11;102342.16;;;2.38;79.20
9009;BME280;62813;51.424;6.762;2023-03-03T09:29:41;102332.91;;;2.46;79.31
9009;BME280;62813;51.424;6.762;2023-03-03T09:32:25;102328.69;;;2.48;78.76
9009;BME280;62813;51.424;6.762;2023-03-03T09:34:56;102335.56;;;2.52;78.76
9009;BME280;62813;51.424;6.762;2023-03-03T09:37:28;102337.47;;;2.62;78.77
9009;BME280;62813;51.424;6.762;2023-03-03T09:39:59;102340.09;;;2.65;78.53
9009;BME280;62813;51.424;6.762;2023-03-03T09:45:19;102338.44;;;2.69;78.54
9009;BME280;62813;51.424;6.762;2023-03-03T09:47:56;102342.78;;;2.74;78.02
9009;BME280;62813;51.424;6.762;2023-03-03T09:53:30;102352.06;;;2.66;78.18
9009;BME280;62813;51.424;6.762;2023-03-03T09:59:03;102352.88;;;2.63;77.83
9009;BME280;62813;51.424;6.762;2023-03-03T10:01:54;102350.22;;;2.59;78.79
9009;BME280;62813;51.424;6.762;2023-03-03T10:04:45;102353.66;;;2.59;78.86
9009;BME280;62813;51.424;6.762;2023-03-03T10:07:25;102360.69;;;2.71;78.72
9009;BME280;62813;51.424;6.762;2023-03-03T10:10:20;102361.44;;;2.64;77.87
9009;BME280;62813;51.424;6.762;2023-03-03T10:13:13;102361.22;;;2.52;78.23
9009;BME280;62813;51.424;6.762;2023-03-03T10:19:00;102361.28;;;2.55;78.54
9009;BME280;62813;51.424;6.762;2023-03-03T10:21:44;102355.44;;;2.63;78.12
9009;BME280;62813;51.424;6.762;2023-03-03T10:26:56;102360.09;;;2.86;78.37
9009;BME280;62813;51.424;6.762;2023-03-03T10:29:45;102360.22;;;2.94;77.09
9009;BME280;62813;51.424;6.762;2023-03-03T10:53:52;102371.69;;;2.64;77.00
9009;BME280;62813;51.424;6.762;2023-03-03T11:02:19;102372.88;;;2.83;77.29
9009;BME280;62813;51.424;6.762;2023-03-03T11:07:48;102371.63;;;3.11;76.39
9009;BME280;62813;51.424;6.762;2023-03-03T11:13:49;102370.91;;;3.21;76.59
9009;BME280;62813;51.424;6.762;2023-03-03T11:19:30;102372.81;;;2.80;77.38
9009;BME280;62813;51.424;6.762;2023-03-03T11:25:02;102368.34;;;2.68;78.25
9009;BME280;62813;51.424;6.762;2023-03-03T11:30:27;102366.81;;;2.79;78.11
9009;BME280;62813;51.424;6.762;2023-03-03T11:33:09;102360.00;;;2.81;77.81
9009;BME280;62813;51.424;6.762;2023-03-03T11:36:08;102360.91;;;2.83;77.88
9009;BME280;62813;51.424;6.762;2023-03-03T11:46:50;102356.31;;;3.17;76.93
9009;BME280;62813;51.424;6.762;2023-03-03T11:49:35;102357.22;;;3.22;76.52
9009;BME280;62813;51.424;6.762;2023-03-03T11:52:25;102359.03;;;3.26;75.84
9009;BME280;62813;51.424;6.762;2023-03-03T12:11:56;102346.38;;;3.40;75.71
9009;BME280;62813;51.424;6.762;2023-03-03T12:17:01;102338.81;;;3.51;75.04
9009;BME280;62813;51.424;6.762;2023-03-03T12:22:38;102333.78;;;3.57;74.79
9009;BME280;62813;51.424;6.762;2023-03-03T12:25:10;102329.66;;;3.69;74.88
9009;BME280;62813;51.424;6.762;2023-03-03T12:28:03;102329.81;;;3.82;74.57
9009;BME280;62813;51.424;6.762;2023-03-03T12:39:11;102315.50;;;4.04;72.92
9009;BME280;62813;51.424;6.762;2023-03-03T12:42:00;102319.81;;;4.05;72.63
9009;BME280;62813;51.424;6.762;2023-03-03T12:47:32;102310.31;;;4.00;72.93
9009;BME280;62813;51.424;6.762;2023-03-03T12:50:05;102312.09;;;4.06;72.20
9009;BME280;62813;51.424;6.762;2023-03-03T12:52:49;102319.88;;;4.12;72.37
9009;BME280;62813;51.424;6.762;2023-03-03T13:01:14;102312.31;;;4.26;72.18
9009;BME280;62813;51.424;6.762;2023-03-03T13:06:30;102310.72;;;4.37;71.43
9009;BME280;62813;51.424;6.762;2023-03-03T13:15:19;102318.38;;;4.33;71.43
9009;BME280;62813;51.424;6.762;2023-03-03T13:31:39;102305.47;;;4.25;71.31
9009;BME280;62813;51.424;6.762;2023-03-03T13:34:16;102297.75;;;4.23;71.71
9009;BME280;62813;51.424;6.762;2023-03-03T13:37:06;102302.09;;;4.31;71.28
9009;BME280;62813;51.424;6.762;2023-03-03T13:42:26;102298.53;;;4.19;71.51
9009;BME280;62813;51.424;6.762;2023-03-03T13:44:55;102290.91;;;4.27;70.95
9009;BME280;62813;51.424;6.762;2023-03-03T13:50:27;102289.19;;;4.24;71.10
9009;BME280;62813;51.424;6.762;2023-03-03T13:53:48;102284.84;;;4.22;71.38
9009;BME280;62813;51.424;6.762;2023-03-03T14:07:01;102275.66;;;4.45;70.59
9009;BME280;62813;51.424;6.762;2023-03-03T14:12:23;102271.44;;;4.53;70.34
9009;BME280;62813;51.424;6.762;2023-03-03T14:15:12;102269.72;;;4.52;70.49
9009;BME280;62813;51.424;6.762;2023-03-03T14:20:36;102268.03;;;4.56;70.21
9009;BME280;62813;51.424;6.762;2023-03-03T14:25:56;102265.50;;;4.61;70.07
9009;BME280;62813;51.424;6.762;2023-03-03T14:28:26;102263.84;;;4.69;70.14
9009;BME280;62813;51.424;6.762;2023-03-03T14:30:57;102256.13;;;4.67;70.21
9009;BME280;62813;51.424;6.762;2023-03-03T14:33:28;102254.47;;;4.75;69.51
9009;BME280;62813;51.424;6.762;2023-03-03T14:41:17;102242.50;;;4.82;69.59
9009;BME280;62813;51.424;6.762;2023-03-03T14:43:55;102252.78;;;4.82;69.96
9009;BME280;62813;51.424;6.762;2023-03-03T14:48:54;102240.78;;;4.84;69.52
9009;BME280;62813;51.424;6.762;2023-03-03T14:53:56;102230.47;;;4.76;69.75
9009;BME280;62813;51.424;6.762;2023-03-03T14:56:36;102232.16;;;4.74;69.86
9009;BME280;62813;51.424;6.762;2023-03-03T15:01:44;102231.34;;;4.80;69.71
9009;BME280;62813;51.424;6.762;2023-03-03T15:06:47;102224.53;;;4.87;69.56
9009;BME280;62813;51.424;6.762;2023-03-03T15:09:48;102219.41;;;4.90;69.71
9009;BME280;62813;51.424;6.762;2023-03-03T15:12:33;102219.44;;;4.96;69.79
9009;BME280;62813;51.424;6.762;2023-03-03T15:17:36;102209.97;;;4.92;69.36
9009;BME280;62813;51.424;6.762;2023-03-03T15:23:09;102208.28;;;4.98;69.65
9009;BME280;62813;51.424;6.762;2023-03-03T15:25:55;102195.41;;;5.00;69.64
9009;BME280;62813;51.424;6.762;2023-03-03T15:34:43;102190.34;;;5.12;69.27
9009;BME280;62813;51.424;6.762;2023-03-03T15:45:44;102175.78;;;5.17;69.59
9009;BME280;62813;51.424;6.762;2023-03-03T15:57:13;102183.53;;;5.25;69.64
9009;BME280;62813;51.424;6.762;2023-03-03T16:02:27;102180.97;;;5.28;69.08
9009;BME280;62813;51.424;6.762;2023-03-03T16:05:32;102175.88;;;5.35;68.58
9009;BME280;62813;51.424;6.762;2023-03-03T16:20:08;102177.59;;;5.36;68.43
9009;BME280;62813;51.424;6.762;2023-03-03T16:22:34;102176.72;;;5.28;68.93
9009;BME280;62813;51.424;6.762;2023-03-03T16:25:41;102173.25;;;5.25;69.30
9009;BME280;62813;51.424;6.762;2023-03-03T16:28:24;102180.13;;;5.21;69.31
9009;BME280;62813;51.424;6.762;2023-03-03T16:30:59;102180.09;;;5.26;69.36
9009;BME280;62813;51.424;6.762;2023-03-03T16:36:22;102182.72;;;5.29;69.84
9009;BME280;62813;51.424;6.762;2023-03-03T16:39:03;102183.53;;;5.23;69.60
9009;BME280;62813;51.424;6.762;2023-03-03T16:41:46;102184.41;;;5.24;70.05
9009;BME280;62813;51.424;6.762;2023-03-03T16:44:33;102192.09;;;5.21;70.08
9009;BME280;62813;51.424;6.762;2023-03-03T16:47:12;102186.09;;;5.19;70.36
9009;BME280;62813;51.424;6.762;2023-03-03T16:53:09;102194.69;;;5.22;69.79
9009;BME280;62813;51.424;6.762;2023-03-03T16:55:57;102201.53;;;5.16;69.94
9009;BME280;62813;51.424;6.762;2023-03-03T17:01:10;102198.03;;;5.04;70.45
9009;BME280;62813;51.424;6.762;2023-03-03T17:07:02;102198.03;;;5.04;70.61
9009;BME280;62813;51.424;6.762;2023-03-03T17:09:41;102206.59;;;5.03;71.03
9009;BME280;62813;51.424;6.762;2023-03-03T17:12:33;102205.75;;;5.01;70.95
9009;BME280;62813;51.424;6.762;2023-03-03T17:20:46;102210.78;;;4.80;71.46
9009;BME280;62813;51.424;6.762;2023-03-03T17:31:14;102224.41;;;4.71;72.05
9009;BME280;62813;51.424;6.762;2023-03-03T17:42:22;102240.75;;;4.76;71.67
9009;BME280;62813;51.424;6.762;2023-03-03T17:45:10;102235.59;;;4.78;71.40
9009;BME280;62813;51.424;6.762;2023-03-03T17:53:36;102250.97;;;4.66;71.59
9009;BME280;62813;51.424;6.762;2023-03-03T17:56:27;102253.50;;;4.60;71.85
9009;BME280;62813;51.424;6.762;2023-03-03T18:07:24;102255.22;;;4.59;72.08
9009;BME280;62813;51.424;6.762;2023-03-03T18:13:24;102252.59;;;4.57;72.02
9009;BME280;62813;51.424;6.762;2023-03-03T18:15:57;102252.59;;;4.57;72.67
9009;BME280;62813;51.424;6.762;2023-03-03T18:26:51;102254.34;;;4.59;72.95
9009;BME280;62813;51.424;6.762;2023-03-03T18:29:25;102256.94;;;4.60;73.23
9009;BME280;62813;51.424;6.762;2023-03-03T18:34:34;102258.69;;;4.66;73.09